sensor_id;sensor_type;location;lat;lon;timestamp;temperature;humidity
49052;DHT22;34866;48.670;18.260;2022-10-16T00:01:19;308.00;2304.00
49052;DHT22;34866;48.670;18.260;2022-10-16T00:03:49;308.10;2304.00
49052;DHT22;34866;48.670;18.260;2022-10-16T00:06:17;308.10;2304.00
49052;DHT22;34866;48.670;18.260;2022-10-16T00:08:43;308.10;2304.00
49052;DHT22;34866;48.670;18.260;2022-10-16T00:11:12;308.10;2304.00
49052;DHT22;34866;48.670;18.260;2022-10-16T00:13:40;308.10;2304.00
49052;DHT22;34866;48.670;18.260;2022-10-16T00:16:07;308.10;2304.00
49052;DHT22;34866;48.670;18.260;2022-10-16T00:18:35;308.10;2304.00
49052;DHT22;34866;48.670;18.260;2022-10-16T00:21:14;307.90;2304.00
49052;DHT22;34866;48.670;18.260;2022-10-16T00:23:41;307.90;2304.00
49052;DHT22;34866;48.670;18.260;2022-10-16T00:26:09;307.90;2304.00
49052;DHT22;34866;48.670;18.260;2022-10-16T00:28:36;307.90;2304.00
49052;DHT22;34866;48.670;18.260;2022-10-16T00:31:07;308.00;2304.00
49052;DHT22;34866;48.670;18.260;2022-10-16T00:33:34;308.00;2304.00
49052;DHT22;34866;48.670;18.260;2022-10-16T00:36:03;307.90;2304.00
49052;DHT22;34866;48.670;18.260;2022-10-16T00:38:29;307.90;2304.00
49052;DHT22;34866;48.670;18.260;2022-10-16T00:40:56;307.90;2304.00
49052;DHT22;34866;48.670;18.260;2022-10-16T00:43:41;308.00;2304.00
49052;DHT22;34866;48.670;18.260;2022-10-16T00:48:58;307.90;2304.00
49052;DHT22;34866;48.670;18.260;2022-10-16T00:51:30;307.90;2304.00
49052;DHT22;34866;48.670;18.260;2022-10-16T00:53:56;307.90;2304.00
49052;DHT22;34866;48.670;18.260;2022-10-16T00:56:22;307.90;2304.00
49052;DHT22;34866;48.670;18.260;2022-10-16T00:58:48;307.90;2304.00
49052;DHT22;34866;48.670;18.260;2022-10-16T01:01:15;307.90;2304.00
49052;DHT22;34866;48.670;18.260;2022-10-16T01:03:42;307.90;2304.00
49052;DHT22;34866;48.670;18.260;2022-10-16T01:09:09;307.80;2304.00
49052;DHT22;34866;48.670;18.260;2022-10-16T01:12:12;307.80;2304.00
49052;DHT22;34866;48.670;18.260;2022-10-16T01:15:04;307.70;2304.00
49052;DHT22;34866;48.670;18.260;2022-10-16T01:17:55;307.70;2304.00
49052;DHT22;34866;48.670;18.260;2022-10-16T01:20:37;307.60;2304.00
49052;DHT22;34866;48.670;18.260;2022-10-16T01:28:25;307.60;2304.00
49052;DHT22;34866;48.670;18.260;2022-10-16T01:30:57;307.60;2304.00
49052;DHT22;34866;48.670;18.260;2022-10-16T01:33:35;307.60;2304.00
49052;DHT22;34866;48.670;18.260;2022-10-16T01:36:13;307.50;2304.00
49052;DHT22;34866;48.670;18.260;2022-10-16T01:38:40;307.50;2304.00
49052;DHT22;34866;48.670;18.260;2022-10-16T01:41:17;307.40;2304.00
49052;DHT22;34866;48.670;18.260;2022-10-16T01:43:49;307.40;2304.00
49052;DHT22;34866;48.670;18.260;2022-10-16T01:46:19;307.40;2304.00
49052;DHT22;34866;48.670;18.260;2022-10-16T01:48:48;307.40;2304.00
49052;DHT22;34866;48.670;18.260;2022-10-16T01:51:19;307.40;2304.00
49052;DHT22;34866;48.670;18.260;2022-10-16T01:53:50;307.20;2304.00
49052;DHT22;34866;48.670;18.260;2022-10-16T01:56:19;282.50;2278.40
49052;DHT22;34866;48.670;18.260;2022-10-16T01:59:11;282.40;2278.40
49052;DHT22;34866;48.670;18.260;2022-10-16T02:01:42;282.50;2278.40
49052;DHT22;34866;48.670;18.260;2022-10-16T02:04:38;282.30;2278.40
49052;DHT22;34866;48.670;18.260;2022-10-16T02:07:05;282.20;2278.40
49052;DHT22;34866;48.670;18.260;2022-10-16T02:09:33;282.40;2278.40
49052;DHT22;34866;48.670;18.260;2022-10-16T02:12:06;282.20;2278.40
49052;DHT22;34866;48.670;18.260;2022-10-16T02:14:38;282.10;2278.40
49052;DHT22;34866;48.670;18.260;2022-10-16T02:17:13;282.40;2278.40
49052;DHT22;34866;48.670;18.260;2022-10-16T02:19:39;282.20;2278.40
49052;DHT22;34866;48.670;18.260;2022-10-16T02:22:08;282.30;2278.40
49052;DHT22;34866;48.670;18.260;2022-10-16T02:24:59;282.20;2278.40
49052;DHT22;34866;48.670;18.260;2022-10-16T02:30:37;282.00;2278.40
49052;DHT22;34866;48.670;18.260;2022-10-16T02:33:12;282.00;2278.40
49052;DHT22;34866;48.670;18.260;2022-10-16T02:35:43;282.00;2278.40
49052;DHT22;34866;48.670;18.260;2022-10-16T02:38:12;282.00;2278.40
49052;DHT22;34866;48.670;18.260;2022-10-16T02:40:47;281.90;2278.40
49052;DHT22;34866;48.670;18.260;2022-10-16T02:43:19;281.80;2278.40
49052;DHT22;34866;48.670;18.260;2022-10-16T02:45:45;282.00;2278.40
49052;DHT22;34866;48.670;18.260;2022-10-16T02:48:12;281.80;2278.40
49052;DHT22;34866;48.670;18.260;2022-10-16T02:50:38;281.80;2278.40
49052;DHT22;34866;48.670;18.260;2022-10-16T02:53:05;281.80;2278.40
49052;DHT22;34866;48.670;18.260;2022-10-16T02:55:31;281.80;2278.40
49052;DHT22;34866;48.670;18.260;2022-10-16T02:57:57;282.00;2278.40
49052;DHT22;34866;48.670;18.260;2022-10-16T03:00:23;281.80;2278.40
49052;DHT22;34866;48.670;18.260;2022-10-16T03:02:49;281.90;2278.40
49052;DHT22;34866;48.670;18.260;2022-10-16T03:05:18;281.90;2278.40
49052;DHT22;34866;48.670;18.260;2022-10-16T03:08:04;282.00;2278.40
49052;DHT22;34866;48.670;18.260;2022-10-16T03:10:31;281.80;2278.40
49052;DHT22;34866;48.670;18.260;2022-10-16T03:12:57;281.90;2278.40
49052;DHT22;34866;48.670;18.260;2022-10-16T03:15:22;281.80;2278.40
49052;DHT22;34866;48.670;18.260;2022-10-16T03:17:52;281.80;2278.40
49052;DHT22;34866;48.670;18.260;2022-10-16T03:20:25;281.80;2278.40
49052;DHT22;34866;48.670;18.260;2022-10-16T03:22:50;281.70;2278.40
49052;DHT22;34866;48.670;18.260;2022-10-16T03:25:16;281.90;2278.40
49052;DHT22;34866;48.670;18.260;2022-10-16T03:27:42;281.80;2278.40
49052;DHT22;34866;48.670;18.260;2022-10-16T03:30:14;281.80;2278.40
49052;DHT22;34866;48.670;18.260;2022-10-16T03:32:39;282.00;2278.40
49052;DHT22;34866;48.670;18.260;2022-10-16T03:35:05;281.80;2278.40
49052;DHT22;34866;48.670;18.260;2022-10-16T03:37:31;281.80;2278.40
49052;DHT22;34866;48.670;18.260;2022-10-16T03:39:57;281.90;2278.40
49052;DHT22;34866;48.670;18.260;2022-10-16T03:42:23;282.00;2278.40
49052;DHT22;34866;48.670;18.260;2022-10-16T03:44:52;282.00;2278.40
49052;DHT22;34866;48.670;18.260;2022-10-16T03:47:18;282.00;2278.40
49052;DHT22;34866;48.670;18.260;2022-10-16T03:49:47;282.10;2278.40
49052;DHT22;34866;48.670;18.260;2022-10-16T03:52:13;282.10;2278.40
49052;DHT22;34866;48.670;18.260;2022-10-16T03:54:40;282.10;2278.40
49052;DHT22;34866;48.670;18.260;2022-10-16T03:57:06;282.10;2278.40
49052;DHT22;34866;48.670;18.260;2022-10-16T03:59:32;282.10;2278.40
49052;DHT22;34866;48.670;18.260;2022-10-16T04:01:58;282.10;2278.40
49052;DHT22;34866;48.670;18.260;2022-10-16T04:04:25;282.20;2278.40
49052;DHT22;34866;48.670;18.260;2022-10-16T04:06:51;282.10;2278.40
49052;DHT22;34866;48.670;18.260;2022-10-16T04:09:16;282.00;2278.40
49052;DHT22;34866;48.670;18.260;2022-10-16T04:11:42;282.10;2278.40
49052;DHT22;34866;48.670;18.260;2022-10-16T04:14:08;282.10;2278.40
49052;DHT22;34866;48.670;18.260;2022-10-16T04:16:40;282.10;2278.40
49052;DHT22;34866;48.670;18.260;2022-10-16T04:19:06;282.00;2278.40
49052;DHT22;34866;48.670;18.260;2022-10-16T04:21:31;282.00;2278.40
49052;DHT22;34866;48.670;18.260;2022-10-16T04:23:57;282.00;2278.40
49052;DHT22;34866;48.670;18.260;2022-10-16T04:26:29;282.00;2278.40
49052;DHT22;34866;48.670;18.260;2022-10-16T04:28:58;282.00;2278.40
49052;DHT22;34866;48.670;18.260;2022-10-16T04:31:24;282.00;2278.40
49052;DHT22;34866;48.670;18.260;2022-10-16T04:33:49;282.20;2278.40
49052;DHT22;34866;48.670;18.260;2022-10-16T04:36:15;282.10;2278.40
49052;DHT22;34866;48.670;18.260;2022-10-16T04:38:40;282.10;2278.40
49052;DHT22;34866;48.670;18.260;2022-10-16T04:41:07;282.10;2278.40
49052;DHT22;34866;48.670;18.260;2022-10-16T04:43:33;282.10;2278.40
49052;DHT22;34866;48.670;18.260;2022-10-16T04:45:59;282.10;2278.40
49052;DHT22;34866;48.670;18.260;2022-10-16T04:48:26;282.10;2278.40
49052;DHT22;34866;48.670;18.260;2022-10-16T04:50:52;281.90;2278.40
49052;DHT22;34866;48.670;18.260;2022-10-16T04:53:18;282.00;2278.40
49052;DHT22;34866;48.670;18.260;2022-10-16T04:55:44;282.10;2278.40
49052;DHT22;34866;48.670;18.260;2022-10-16T04:58:10;282.00;2278.40
49052;DHT22;34866;48.670;18.260;2022-10-16T05:00:36;282.00;2278.40
49052;DHT22;34866;48.670;18.260;2022-10-16T05:03:03;281.90;2278.40
49052;DHT22;34866;48.670;18.260;2022-10-16T05:05:33;281.80;2278.40
49052;DHT22;34866;48.670;18.260;2022-10-16T05:08:04;282.00;2278.40
49052;DHT22;34866;48.670;18.260;2022-10-16T05:10:29;281.80;2278.40
49052;DHT22;34866;48.670;18.260;2022-10-16T05:12:55;281.80;2278.40
49052;DHT22;34866;48.670;18.260;2022-10-16T05:15:21;281.90;2278.40
49052;DHT22;34866;48.670;18.260;2022-10-16T05:17:54;281.90;2278.40
49052;DHT22;34866;48.670;18.260;2022-10-16T05:20:20;282.10;2278.40
49052;DHT22;34866;48.670;18.260;2022-10-16T05:22:46;256.20;2252.80
49052;DHT22;34866;48.670;18.260;2022-10-16T05:25:12;282.10;2278.40
49052;DHT22;34866;48.670;18.260;2022-10-16T05:27:37;282.00;2278.40
49052;DHT22;34866;48.670;18.260;2022-10-16T05:30:03;282.00;2278.40
49052;DHT22;34866;48.670;18.260;2022-10-16T05:32:29;282.10;2278.40
49052;DHT22;34866;48.670;18.260;2022-10-16T05:34:56;282.20;2278.40
49052;DHT22;34866;48.670;18.260;2022-10-16T05:37:22;282.20;2278.40
49052;DHT22;34866;48.670;18.260;2022-10-16T05:39:47;282.20;2278.40
49052;DHT22;34866;48.670;18.260;2022-10-16T05:42:14;282.20;2278.40
49052;DHT22;34866;48.670;18.260;2022-10-16T05:44:40;282.30;2278.40
49052;DHT22;34866;48.670;18.260;2022-10-16T05:47:06;282.30;2278.40
49052;DHT22;34866;48.670;18.260;2022-10-16T05:49:32;282.30;2278.40
49052;DHT22;34866;48.670;18.260;2022-10-16T05:51:58;282.40;2278.40
49052;DHT22;34866;48.670;18.260;2022-10-16T05:54:25;307.20;2304.00
49052;DHT22;34866;48.670;18.260;2022-10-16T05:56:54;307.20;2304.00
49052;DHT22;34866;48.670;18.260;2022-10-16T05:59:21;307.30;2304.00
49052;DHT22;34866;48.670;18.260;2022-10-16T06:02:08;307.40;2304.00
49052;DHT22;34866;48.670;18.260;2022-10-16T06:04:37;307.40;2304.00
49052;DHT22;34866;48.670;18.260;2022-10-16T06:07:07;307.50;2304.00
49052;DHT22;34866;48.670;18.260;2022-10-16T06:09:33;307.50;2304.00
49052;DHT22;34866;48.670;18.260;2022-10-16T06:11:59;307.60;2304.00
49052;DHT22;34866;48.670;18.260;2022-10-16T06:14:24;307.70;2304.00
49052;DHT22;34866;48.670;18.260;2022-10-16T06:16:50;307.80;2304.00
49052;DHT22;34866;48.670;18.260;2022-10-16T06:19:16;307.80;2304.00
49052;DHT22;34866;48.670;18.260;2022-10-16T06:21:43;307.90;2304.00
49052;DHT22;34866;48.670;18.260;2022-10-16T06:24:09;307.80;2304.00
49052;DHT22;34866;48.670;18.260;2022-10-16T06:26:34;307.70;2304.00
49052;DHT22;34866;48.670;18.260;2022-10-16T06:29:00;332.80;2329.60
49052;DHT22;34866;48.670;18.260;2022-10-16T06:31:27;332.80;2329.60
49052;DHT22;34866;48.670;18.260;2022-10-16T06:33:56;308.00;2304.00
49052;DHT22;34866;48.670;18.260;2022-10-16T06:36:23;308.00;2304.00
49052;DHT22;34866;48.670;18.260;2022-10-16T06:38:50;307.90;2304.00
49052;DHT22;34866;48.670;18.260;2022-10-16T06:41:17;308.00;2304.00
49052;DHT22;34866;48.670;18.260;2022-10-16T06:43:43;308.10;2304.00
49052;DHT22;34866;48.670;18.260;2022-10-16T06:46:13;308.00;2304.00
49052;DHT22;34866;48.670;18.260;2022-10-16T06:48:40;307.90;2304.00
49052;DHT22;34866;48.670;18.260;2022-10-16T06:51:18;307.40;2304.00
49052;DHT22;34866;48.670;18.260;2022-10-16T06:53:49;308.00;2304.00
49052;DHT22;34866;48.670;18.260;2022-10-16T06:56:20;308.10;2304.00
49052;DHT22;34866;48.670;18.260;2022-10-16T06:58:53;308.10;2304.00
49052;DHT22;34866;48.670;18.260;2022-10-16T07:01:20;332.90;2329.60
49052;DHT22;34866;48.670;18.260;2022-10-16T07:03:48;332.80;2329.60
49052;DHT22;34866;48.670;18.260;2022-10-16T07:06:16;332.90;2329.60
49052;DHT22;34866;48.670;18.260;2022-10-16T07:08:44;333.00;2329.60
49052;DHT22;34866;48.670;18.260;2022-10-16T07:11:30;333.00;2329.60
49052;DHT22;34866;48.670;18.260;2022-10-16T07:13:56;333.10;2329.60
49052;DHT22;34866;48.670;18.260;2022-10-16T07:16:29;333.20;2329.60
49052;DHT22;34866;48.670;18.260;2022-10-16T07:18:58;333.20;2329.60
49052;DHT22;34866;48.670;18.260;2022-10-16T07:21:29;333.20;2329.60
49052;DHT22;34866;48.670;18.260;2022-10-16T07:23:57;333.20;2329.60
49052;DHT22;34866;48.670;18.260;2022-10-16T07:26:25;333.20;2329.60
49052;DHT22;34866;48.670;18.260;2022-10-16T07:28:50;333.20;2329.60
49052;DHT22;34866;48.670;18.260;2022-10-16T07:31:18;333.20;2201.60
49052;DHT22;34866;48.670;18.260;2022-10-16T07:33:45;333.20;2176.00
49052;DHT22;34866;48.670;18.260;2022-10-16T07:36:14;333.30;2252.80
49052;DHT22;34866;48.670;18.260;2022-10-16T07:38:40;333.50;2329.60
49052;DHT22;34866;48.670;18.260;2022-10-16T07:41:10;333.40;2329.60
49052;DHT22;34866;48.670;18.260;2022-10-16T07:43:39;333.40;2329.60
49052;DHT22;34866;48.670;18.260;2022-10-16T07:46:08;333.50;2329.60
49052;DHT22;34866;48.670;18.260;2022-10-16T07:48:34;333.50;2329.60
49052;DHT22;34866;48.670;18.260;2022-10-16T07:51:01;333.60;2329.60
49052;DHT22;34866;48.670;18.260;2022-10-16T07:53:28;333.60;2329.60
49052;DHT22;34866;48.670;18.260;2022-10-16T07:56:02;333.70;2329.60
49052;DHT22;34866;48.670;18.260;2022-10-16T07:58:28;333.70;2329.60
49052;DHT22;34866;48.670;18.260;2022-10-16T08:00:55;333.60;2329.60
49052;DHT22;34866;48.670;18.260;2022-10-16T08:03:21;333.70;2329.60
49052;DHT22;34866;48.670;18.260;2022-10-16T08:05:47;333.70;2329.60
49052;DHT22;34866;48.670;18.260;2022-10-16T08:08:14;358.40;2329.60
49052;DHT22;34866;48.670;18.260;2022-10-16T08:10:40;358.50;2329.60
49052;DHT22;34866;48.670;18.260;2022-10-16T08:13:06;358.60;2329.60
49052;DHT22;34866;48.670;18.260;2022-10-16T08:15:31;358.60;2329.60
49052;DHT22;34866;48.670;18.260;2022-10-16T08:18:03;358.70;2329.60
49052;DHT22;34866;48.670;18.260;2022-10-16T08:20:56;358.80;2329.60
49052;DHT22;34866;48.670;18.260;2022-10-16T08:23:22;358.80;2329.60
49052;DHT22;34866;48.670;18.260;2022-10-16T08:25:48;358.80;2329.60
49052;DHT22;34866;48.670;18.260;2022-10-16T08:28:14;358.80;2329.60
49052;DHT22;34866;48.670;18.260;2022-10-16T08:30:41;358.70;2329.60
49052;DHT22;34866;48.670;18.260;2022-10-16T08:33:06;358.80;2329.60
49052;DHT22;34866;48.670;18.260;2022-10-16T08:35:32;358.80;2329.60
49052;DHT22;34866;48.670;18.260;2022-10-16T08:38:03;358.90;2329.60
49052;DHT22;34866;48.670;18.260;2022-10-16T08:40:32;358.90;2329.60
49052;DHT22;34866;48.670;18.260;2022-10-16T08:48:59;359.20;2329.60
49052;DHT22;34866;48.670;18.260;2022-10-16T08:51:34;359.30;2329.60
49052;DHT22;34866;48.670;18.260;2022-10-16T08:54:32;359.30;2329.60
49052;DHT22;34866;48.670;18.260;2022-10-16T08:59:34;359.30;2329.60
49052;DHT22;34866;48.670;18.260;2022-10-16T09:02:00;359.30;2329.60
49052;DHT22;34866;48.670;18.260;2022-10-16T09:04:52;359.20;2329.60
49052;DHT22;34866;48.670;18.260;2022-10-16T09:07:29;359.30;2329.60
49052;DHT22;34866;48.670;18.260;2022-10-16T09:13:27;384.10;2329.60
49052;DHT22;34866;48.670;18.260;2022-10-16T09:16:30;384.30;2329.60
49052;DHT22;34866;48.670;18.260;2022-10-16T09:21:36;384.30;2329.60
49052;DHT22;34866;48.670;18.260;2022-10-16T09:24:18;384.40;2329.60
49052;DHT22;34866;48.670;18.260;2022-10-16T09:26:45;384.40;2329.60
49052;DHT22;34866;48.670;18.260;2022-10-16T09:29:15;384.70;2329.60
49052;DHT22;34866;48.670;18.260;2022-10-16T09:31:42;384.80;2329.60
49052;DHT22;34866;48.670;18.260;2022-10-16T09:36:45;384.90;2329.60
49052;DHT22;34866;48.670;18.260;2022-10-16T09:39:12;384.90;2329.60
49052;DHT22;34866;48.670;18.260;2022-10-16T09:41:42;409.60;2355.20
49052;DHT22;34866;48.670;18.260;2022-10-16T09:46:46;435.40;2355.20
49052;DHT22;34866;48.670;18.260;2022-10-16T09:49:23;435.30;2355.20
49052;DHT22;34866;48.670;18.260;2022-10-16T09:52:06;435.20;2355.20
49052;DHT22;34866;48.670;18.260;2022-10-16T09:54:38;435.60;2355.20
49052;DHT22;34866;48.670;18.260;2022-10-16T09:57:14;435.90;2355.20
49052;DHT22;34866;48.670;18.260;2022-10-16T09:59:54;563.40;1280.00
49052;DHT22;34866;48.670;18.260;2022-10-16T10:02:29;563.20;128.00
49052;DHT22;34866;48.670;18.260;2022-10-16T10:04:55;461.10;2380.80
49052;DHT22;34866;48.670;18.260;2022-10-16T10:07:27;435.80;2355.20
49052;DHT22;34866;48.670;18.260;2022-10-16T10:09:56;435.60;2355.20
49052;DHT22;34866;48.670;18.260;2022-10-16T10:12:25;435.70;2355.20
49052;DHT22;34866;48.670;18.260;2022-10-16T10:14:52;435.90;2355.20
49052;DHT22;34866;48.670;18.260;2022-10-16T10:17:24;435.80;2355.20
49052;DHT22;34866;48.670;18.260;2022-10-16T10:22:40;435.70;2355.20
49052;DHT22;34866;48.670;18.260;2022-10-16T10:39:16;435.70;2355.20
49052;DHT22;34866;48.670;18.260;2022-10-16T10:42:00;435.80;2355.20
49052;DHT22;34866;48.670;18.260;2022-10-16T10:53:05;435.90;2355.20
49052;DHT22;34866;48.670;18.260;2022-10-16T11:04:43;435.60;2355.20
49052;DHT22;34866;48.670;18.260;2022-10-16T11:07:27;435.50;2355.20
49052;DHT22;34866;48.670;18.260;2022-10-16T11:09:58;435.60;2355.20
49052;DHT22;34866;48.670;18.260;2022-10-16T11:12:38;435.60;2355.20
49052;DHT22;34866;48.670;18.260;2022-10-16T11:15:15;435.50;2355.20
49052;DHT22;34866;48.670;18.260;2022-10-16T11:17:51;435.50;2355.20
49052;DHT22;34866;48.670;18.260;2022-10-16T11:20:26;435.80;2355.20
49052;DHT22;34866;48.670;18.260;2022-10-16T11:23:01;435.80;2355.20
49052;DHT22;34866;48.670;18.260;2022-10-16T11:25:32;435.80;2355.20
49052;DHT22;34866;48.670;18.260;2022-10-16T11:28:19;435.90;2355.20
49052;DHT22;34866;48.670;18.260;2022-10-16T11:31:07;435.80;2355.20
49052;DHT22;34866;48.670;18.260;2022-10-16T11:33:52;435.80;2355.20
49052;DHT22;34866;48.670;18.260;2022-10-16T11:39:26;435.80;2355.20
49052;DHT22;34866;48.670;18.260;2022-10-16T11:47:19;435.90;2355.20
49052;DHT22;34866;48.670;18.260;2022-10-16T11:49:50;435.90;2355.20
49052;DHT22;34866;48.670;18.260;2022-10-16T11:52:38;436.00;2355.20
49052;DHT22;34866;48.670;18.260;2022-10-16T11:57:46;436.10;2355.20
49052;DHT22;34866;48.670;18.260;2022-10-16T12:00:28;461.00;2380.80
49052;DHT22;34866;48.670;18.260;2022-10-16T12:08:18;461.50;2380.80
49052;DHT22;34866;48.670;18.260;2022-10-16T12:10:46;461.40;2227.20
49052;DHT22;34866;48.670;18.260;2022-10-16T12:18:46;461.50;1868.80
49052;DHT22;34866;48.670;18.260;2022-10-16T12:21:32;461.30;2124.80
49052;DHT22;34866;48.670;18.260;2022-10-16T12:24:04;461.20;2022.40
49052;DHT22;34866;48.670;18.260;2022-10-16T12:26:39;461.30;1433.60
49052;DHT22;34866;48.670;18.260;2022-10-16T12:29:39;461.30;1971.20
49052;DHT22;34866;48.670;18.260;2022-10-16T12:32:32;461.60;1356.80
49052;DHT22;34866;48.670;18.260;2022-10-16T12:35:02;486.60;1766.40
49052;DHT22;34866;48.670;18.260;2022-10-16T12:37:34;487.10;1024.00
49052;DHT22;34866;48.670;18.260;2022-10-16T12:40:13;486.90;972.80
49052;DHT22;34866;48.670;18.260;2022-10-16T12:42:40;512.20;537.60
49052;DHT22;34866;48.670;18.260;2022-10-16T12:45:30;487.10;128.00
49052;DHT22;34866;48.670;18.260;2022-10-16T12:48:21;486.90;537.60
49052;DHT22;34866;48.670;18.260;2022-10-16T12:50:48;487.10;128.00
49052;DHT22;34866;48.670;18.260;2022-10-16T12:53:26;487.10;665.60
49052;DHT22;34866;48.670;18.260;2022-10-16T12:56:09;486.80;307.20
49052;DHT22;34866;48.670;18.260;2022-10-16T13:04:19;486.50;947.20
49052;DHT22;34866;48.670;18.260;2022-10-16T13:09:36;486.90;435.20
49052;DHT22;34866;48.670;18.260;2022-10-16T13:12:40;486.70;435.20
49052;DHT22;34866;48.670;18.260;2022-10-16T13:23:36;486.50;1075.20
49052;DHT22;34866;48.670;18.260;2022-10-16T13:29:16;461.70;1075.20
49052;DHT22;34866;48.670;18.260;2022-10-16T13:31:44;461.60;972.80
49052;DHT22;34866;48.670;18.260;2022-10-16T13:34:19;461.60;1024.00
49052;DHT22;34866;48.670;18.260;2022-10-16T13:36:48;461.50;1356.80
49052;DHT22;34866;48.670;18.260;2022-10-16T13:39:30;461.50;1126.40
49052;DHT22;34866;48.670;18.260;2022-10-16T13:44:34;461.40;1536.00
49052;DHT22;34866;48.670;18.260;2022-10-16T13:47:02;461.40;1280.00
49052;DHT22;34866;48.670;18.260;2022-10-16T13:49:28;461.60;1484.80
49052;DHT22;34866;48.670;18.260;2022-10-16T13:51:55;461.30;1100.80
49052;DHT22;34866;48.670;18.260;2022-10-16T13:54:22;461.20;1254.40
49052;DHT22;34866;48.670;18.260;2022-10-16T13:56:48;461.10;1817.60
49052;DHT22;34866;48.670;18.260;2022-10-16T13:59:24;460.90;1843.20
49052;DHT22;34866;48.670;18.260;2022-10-16T14:05:01;436.10;1945.60
49052;DHT22;34866;48.670;18.260;2022-10-16T14:07:32;436.00;2150.40
49052;DHT22;34866;48.670;18.260;2022-10-16T14:10:27;436.00;1971.20
49052;DHT22;34866;48.670;18.260;2022-10-16T14:13:04;436.00;1920.00
49052;DHT22;34866;48.670;18.260;2022-10-16T14:15:32;436.10;1945.60
49052;DHT22;34866;48.670;18.260;2022-10-16T14:17:59;460.80;2022.40
49052;DHT22;34866;48.670;18.260;2022-10-16T14:20:28;460.90;2124.80
49052;DHT22;34866;48.670;18.260;2022-10-16T14:25:45;461.20;2150.40
49052;DHT22;34866;48.670;18.260;2022-10-16T14:28:18;461.20;1536.00
49052;DHT22;34866;48.670;18.260;2022-10-16T14:30:55;461.20;1740.80
49052;DHT22;34866;48.670;18.260;2022-10-16T14:33:32;461.40;1408.00
49052;DHT22;34866;48.670;18.260;2022-10-16T14:38:47;461.70;1715.20
49052;DHT22;34866;48.670;18.260;2022-10-16T14:41:15;461.50;1766.40
49052;DHT22;34866;48.670;18.260;2022-10-16T14:43:42;461.40;1638.40
49052;DHT22;34866;48.670;18.260;2022-10-16T14:46:35;461.30;768.00
49052;DHT22;34866;48.670;18.260;2022-10-16T14:49:18;461.30;1612.80
49052;DHT22;34866;48.670;18.260;2022-10-16T14:51:45;461.50;1254.40
49052;DHT22;34866;48.670;18.260;2022-10-16T14:54:12;461.50;1024.00
49052;DHT22;34866;48.670;18.260;2022-10-16T14:56:56;461.40;896.00
49052;DHT22;34866;48.670;18.260;2022-10-16T15:01:58;461.30;1382.40
49052;DHT22;34866;48.670;18.260;2022-10-16T15:04:24;460.90;1638.40
49052;DHT22;34866;48.670;18.260;2022-10-16T15:06:50;460.80;2048.00
49052;DHT22;34866;48.670;18.260;2022-10-16T15:09:16;435.90;2201.60
49052;DHT22;34866;48.670;18.260;2022-10-16T15:11:42;435.70;2355.20
49052;DHT22;34866;48.670;18.260;2022-10-16T15:14:13;435.70;2355.20
49052;DHT22;34866;48.670;18.260;2022-10-16T15:16:39;435.70;2355.20
49052;DHT22;34866;48.670;18.260;2022-10-16T15:19:05;435.70;2355.20
49052;DHT22;34866;48.670;18.260;2022-10-16T15:21:33;435.40;2355.20
49052;DHT22;34866;48.670;18.260;2022-10-16T15:24:00;435.40;2355.20
49052;DHT22;34866;48.670;18.260;2022-10-16T15:26:27;435.40;2355.20
49052;DHT22;34866;48.670;18.260;2022-10-16T15:28:55;435.20;2355.20
49052;DHT22;34866;48.670;18.260;2022-10-16T15:31:21;410.50;2355.20
49052;DHT22;34866;48.670;18.260;2022-10-16T15:33:50;410.20;2355.20
49052;DHT22;34866;48.670;18.260;2022-10-16T15:36:25;410.10;2355.20
49052;DHT22;34866;48.670;18.260;2022-10-16T15:38:51;409.90;2355.20
49052;DHT22;34866;48.670;18.260;2022-10-16T15:41:18;410.00;2355.20
49052;DHT22;34866;48.670;18.260;2022-10-16T15:43:48;409.80;2355.20
49052;DHT22;34866;48.670;18.260;2022-10-16T15:46:21;409.70;2355.20
49052;DHT22;34866;48.670;18.260;2022-10-16T15:48:48;384.90;2329.60
49052;DHT22;34866;48.670;18.260;2022-10-16T15:51:17;384.80;2329.60
49052;DHT22;34866;48.670;18.260;2022-10-16T15:53:44;384.60;2329.60
49052;DHT22;34866;48.670;18.260;2022-10-16T15:56:12;384.60;2329.60
49052;DHT22;34866;48.670;18.260;2022-10-16T15:58:39;384.40;2329.60
49052;DHT22;34866;48.670;18.260;2022-10-16T16:01:05;384.30;2329.60
49052;DHT22;34866;48.670;18.260;2022-10-16T16:03:31;384.20;2329.60
49052;DHT22;34866;48.670;18.260;2022-10-16T16:06:07;384.10;2329.60
49052;DHT22;34866;48.670;18.260;2022-10-16T16:08:34;384.10;2329.60
49052;DHT22;34866;48.670;18.260;2022-10-16T16:11:15;358.40;2329.60
49052;DHT22;34866;48.670;18.260;2022-10-16T16:13:41;359.30;2329.60
49052;DHT22;34866;48.670;18.260;2022-10-16T16:16:08;359.00;2329.60
49052;DHT22;34866;48.670;18.260;2022-10-16T16:18:34;359.00;2329.60
49052;DHT22;34866;48.670;18.260;2022-10-16T16:21:02;358.90;2329.60
49052;DHT22;34866;48.670;18.260;2022-10-16T16:23:28;358.80;2329.60
49052;DHT22;34866;48.670;18.260;2022-10-16T16:26:10;358.80;2329.60
49052;DHT22;34866;48.670;18.260;2022-10-16T16:28:41;358.80;2329.60
49052;DHT22;34866;48.670;18.260;2022-10-16T16:31:09;358.90;2329.60
49052;DHT22;34866;48.670;18.260;2022-10-16T16:33:37;358.80;2329.60
49052;DHT22;34866;48.670;18.260;2022-10-16T16:36:05;359.10;1996.80
49052;DHT22;34866;48.670;18.260;2022-10-16T16:38:32;358.60;1945.60
49052;DHT22;34866;48.670;18.260;2022-10-16T16:40:58;358.60;2329.60
49052;DHT22;34866;48.670;18.260;2022-10-16T16:43:25;358.60;2329.60
49052;DHT22;34866;48.670;18.260;2022-10-16T16:45:53;358.50;2329.60
49052;DHT22;34866;48.670;18.260;2022-10-16T16:48:19;333.70;2329.60
49052;DHT22;34866;48.670;18.260;2022-10-16T16:50:44;333.70;2329.60
49052;DHT22;34866;48.670;18.260;2022-10-16T16:53:13;333.60;2329.60
49052;DHT22;34866;48.670;18.260;2022-10-16T16:55:39;333.50;2329.60
49052;DHT22;34866;48.670;18.260;2022-10-16T16:58:05;333.50;2329.60
49052;DHT22;34866;48.670;18.260;2022-10-16T17:00:31;333.40;2329.60